Waswanipi, Canada
Current Conditions -  °F | °C
As of 4:23 AM on Monday 24 Nov 2014 (Local Time) from CYNM Reporting Station
Freezing Rain Freezing Rain  
Wind Chill: -2°   Ceiling: 400
Heat Index:   Visibility: 5mi
Dew Point:   Wind: 12mph
Humidity: 100%   Direction: 150°SSE
Pressure: 29.42"   Gusts: NA
Location:  49.65°N, 76.48°W
Report Text: CYNM 240923Z AUTO 15010KT 5SM -FZRA BR OVC004 02/02 A2942 RMK ICG PRESFR SLP975
Loading
Personal Weather Stations






























Interactive Weather Map New forecast layout! Learn more

10-Day Weather Forecast

Advertisements
Track Severe Weather on mobile